createdAt,value
2023-05-19T00:01:55.186Z,1.27
2023-05-19T00:04:22.632Z,1.17
2023-05-19T00:06:51.615Z,1.07
2023-05-19T00:09:18.947Z,1.27
2023-05-19T00:11:46.538Z,1.10
2023-05-19T00:14:14.021Z,1.10
2023-05-19T00:16:42.310Z,1.10
2023-05-19T00:19:12.463Z,1.40
2023-05-19T00:21:40.300Z,1.20
2023-05-19T00:24:07.688Z,1.10
2023-05-19T00:26:35.083Z,1.17
2023-05-19T00:29:02.302Z,1.30
2023-05-19T00:31:29.984Z,1.00
2023-05-19T00:33:57.189Z,1.23
2023-05-19T00:36:25.505Z,1.10
2023-05-19T00:38:52.838Z,1.07
2023-05-19T00:41:21.062Z,1.00
2023-05-19T00:43:48.289Z,0.97
2023-05-19T00:46:15.664Z,1.20
2023-05-19T00:48:44.763Z,1.30
2023-05-19T00:51:14.699Z,1.20
2023-05-19T00:53:43.919Z,1.20
2023-05-19T00:56:11.172Z,1.07
2023-05-19T00:58:39.252Z,1.30
2023-05-19T01:01:07.921Z,1.17
2023-05-19T01:03:36.126Z,1.07
2023-05-19T01:06:07.368Z,1.40
2023-05-19T01:08:35.884Z,1.10
2023-05-19T01:11:03.144Z,1.43
2023-05-19T01:13:32.808Z,1.23
2023-05-19T01:16:00.010Z,1.00
2023-05-19T01:18:33.092Z,0.83
2023-05-19T01:21:23.956Z,1.00
2023-05-19T01:24:07.123Z,1.53
2023-05-19T01:26:52.408Z,1.10
2023-05-19T01:29:31.570Z,1.33
2023-05-19T01:32:00.848Z,0.93
2023-05-19T01:34:28.375Z,1.33
2023-05-19T01:36:56.163Z,1.03
2023-05-19T01:39:24.187Z,0.90
2023-05-19T01:41:51.696Z,1.50
2023-05-19T01:44:19.660Z,1.23
2023-05-19T01:46:47.001Z,1.10
2023-05-19T01:49:14.417Z,1.13
2023-05-19T01:51:41.673Z,1.40
2023-05-19T01:54:08.815Z,1.73
2023-05-19T01:56:42.867Z,1.20
2023-05-19T01:59:17.460Z,1.43
2023-05-19T02:01:54.565Z,1.10
2023-05-19T02:04:40.745Z,1.70
2023-05-19T02:07:17.936Z,1.20
2023-05-19T02:10:08.218Z,1.40
2023-05-19T02:12:37.637Z,1.33
2023-05-19T02:15:05.135Z,1.23
2023-05-19T02:17:33.931Z,1.30
2023-05-19T02:20:01.189Z,1.60
2023-05-19T02:22:28.454Z,1.17
2023-05-19T02:24:57.371Z,1.37
2023-05-19T02:27:24.844Z,1.20
2023-05-19T02:29:52.081Z,1.30
2023-05-19T02:32:19.487Z,1.30
2023-05-19T02:34:46.693Z,1.33
2023-05-19T02:37:14.653Z,1.40
2023-05-19T02:39:42.363Z,1.50
2023-05-19T02:42:09.595Z,1.17
2023-05-19T02:44:37.119Z,1.27
2023-05-19T02:47:04.356Z,1.50
2023-05-19T02:49:35.753Z,1.40
2023-05-19T02:52:03.657Z,1.37
2023-05-19T02:54:31.396Z,1.60
2023-05-19T02:56:58.781Z,1.80
2023-05-19T02:59:26.715Z,1.60
2023-05-19T03:01:56.975Z,1.60
2023-05-19T03:04:24.308Z,1.37
2023-05-19T03:06:51.706Z,1.50
2023-05-19T03:09:18.919Z,1.60
2023-05-19T03:11:46.124Z,1.87
2023-05-19T03:14:16.141Z,2.23
2023-05-19T03:16:43.545Z,1.50
2023-05-19T03:19:11.311Z,1.40
2023-05-19T03:21:38.517Z,1.60
2023-05-19T03:24:05.847Z,1.83
2023-05-19T03:26:33.105Z,2.90
2023-05-19T03:29:01.058Z,2.00
2023-05-19T03:31:28.441Z,1.67
2023-05-19T03:33:57.765Z,2.07
2023-05-19T03:36:25.090Z,1.70
2023-05-19T03:38:52.478Z,1.57
2023-05-19T03:41:19.665Z,1.90
2023-05-19T03:43:46.826Z,1.90
2023-05-19T03:46:14.057Z,1.83
2023-05-19T03:48:41.469Z,1.73
2023-05-19T03:51:09.061Z,1.60
2023-05-19T03:53:43.879Z,1.60
2023-05-19T03:56:13.910Z,2.27
2023-05-19T03:58:45.047Z,1.97
2023-05-19T04:01:12.458Z,1.73
2023-05-19T04:03:39.693Z,1.90
2023-05-19T04:06:07.099Z,2.33
2023-05-19T04:08:34.469Z,2.40
2023-05-19T04:11:02.007Z,2.57
2023-05-19T04:13:29.213Z,2.00
2023-05-19T04:15:56.478Z,1.93
2023-05-19T04:18:39.859Z,2.00
2023-05-19T04:21:13.771Z,2.60
2023-05-19T04:24:09.094Z,1.70
2023-05-19T04:26:50.448Z,2.10
2023-05-19T04:29:31.954Z,1.90
2023-05-19T04:32:44.671Z,2.37
2023-05-19T04:35:18.188Z,2.57
2023-05-19T04:37:48.867Z,2.20
2023-05-19T04:40:28.426Z,2.20
2023-05-19T04:43:13.334Z,2.10
2023-05-19T04:45:42.574Z,1.90
2023-05-19T04:48:09.960Z,1.60
2023-05-19T04:50:44.548Z,1.73
2023-05-19T04:53:13.873Z,2.20
2023-05-19T04:55:45.549Z,1.97
2023-05-19T04:58:12.780Z,1.93
2023-05-19T05:00:40.095Z,2.00
2023-05-19T05:03:07.964Z,1.77
2023-05-19T05:05:35.849Z,2.00
2023-05-19T05:08:06.132Z,1.80
2023-05-19T05:10:33.525Z,2.00
2023-05-19T05:13:05.271Z,1.70
2023-05-19T05:15:34.854Z,2.10
2023-05-19T05:18:02.183Z,2.17
2023-05-19T05:20:32.016Z,2.03
2023-05-19T05:23:06.515Z,2.20
2023-05-19T05:25:34.205Z,2.47
2023-05-19T05:28:14.190Z,2.03
2023-05-19T05:30:43.616Z,2.20
2023-05-19T05:33:12.170Z,1.90
2023-05-19T05:36:02.357Z,2.23
2023-05-19T05:38:29.532Z,2.07
2023-05-19T05:40:57.898Z,2.07
2023-05-19T05:43:27.290Z,2.00
2023-05-19T05:45:54.519Z,2.30
2023-05-19T05:48:21.879Z,2.30
2023-05-19T05:50:53.048Z,2.20
2023-05-19T05:53:25.806Z,2.73
2023-05-19T05:55:53.669Z,2.10
2023-05-19T05:58:24.883Z,2.47
2023-05-19T06:00:53.592Z,2.17
2023-05-19T06:03:24.325Z,2.30
2023-05-19T06:05:51.846Z,2.63
2023-05-19T06:08:19.168Z,2.60
2023-05-19T06:10:47.445Z,2.35
2023-05-19T06:13:25.359Z,3.00
2023-05-19T06:16:00.445Z,3.25
2023-05-19T06:18:32.166Z,2.75
2023-05-19T06:21:03.546Z,2.75
2023-05-19T06:23:34.292Z,3.30
2023-05-19T06:26:01.578Z,3.65
2023-05-19T06:28:30.094Z,4.00
2023-05-19T06:30:57.519Z,3.50
2023-05-19T06:33:26.770Z,3.22
2023-05-19T06:35:55.827Z,4.47
2023-05-19T06:38:25.800Z,3.95
2023-05-19T06:40:56.107Z,3.88
2023-05-19T06:43:25.892Z,5.00
2023-05-19T06:45:53.528Z,6.05
2023-05-19T06:48:21.150Z,5.47
2023-05-19T06:50:54.513Z,5.28
2023-05-19T06:53:25.310Z,4.40
2023-05-19T06:56:00.162Z,4.45
2023-05-19T06:58:27.935Z,4.88
2023-05-19T07:00:55.124Z,4.35
2023-05-19T07:03:22.428Z,4.78
2023-05-19T07:05:52.820Z,5.45
2023-05-19T07:08:23.232Z,3.33
2023-05-19T07:10:50.577Z,3.88
2023-05-19T07:13:17.914Z,2.83
2023-05-19T07:15:45.172Z,2.97
2023-05-19T07:18:12.513Z,3.42
2023-05-19T07:20:39.811Z,2.97
2023-05-19T07:23:07.078Z,3.10
2023-05-19T07:25:34.333Z,2.90
2023-05-19T07:28:01.912Z,3.08
2023-05-19T07:30:29.654Z,3.03
2023-05-19T07:32:56.971Z,2.97
2023-05-19T07:35:24.354Z,2.70
2023-05-19T07:37:52.656Z,2.72
2023-05-19T07:40:19.886Z,3.55
2023-05-19T07:42:47.102Z,3.20
2023-05-19T07:45:14.406Z,2.80
2023-05-19T07:47:41.748Z,3.20
2023-05-19T07:50:09.137Z,2.92
2023-05-19T07:52:36.675Z,3.05
2023-05-19T07:55:05.287Z,3.55
2023-05-19T07:57:32.489Z,3.40
2023-05-19T07:59:59.720Z,2.92
2023-05-19T08:02:27.246Z,2.65
2023-05-19T08:04:54.553Z,2.15
2023-05-19T08:07:21.847Z,2.20
2023-05-19T08:09:49.054Z,2.40
2023-05-19T08:12:16.199Z,2.85
2023-05-19T08:14:43.425Z,3.08
2023-05-19T08:17:10.705Z,2.70
2023-05-19T08:19:37.856Z,2.25
2023-05-19T08:22:05.340Z,3.15
2023-05-19T08:24:33.885Z,2.42
2023-05-19T08:27:01.385Z,2.60
2023-05-19T08:29:28.712Z,3.08
2023-05-19T08:31:55.983Z,2.30
2023-05-19T08:34:23.246Z,2.45
2023-05-19T08:36:50.511Z,2.08
2023-05-19T08:39:19.723Z,2.30
2023-05-19T08:41:46.869Z,2.50
2023-05-19T08:44:14.087Z,2.60
2023-05-19T08:46:41.828Z,2.30
2023-05-19T08:49:12.370Z,2.65
2023-05-19T08:52:06.237Z,2.40
2023-05-19T08:54:40.009Z,2.25
2023-05-19T08:57:08.004Z,2.22
2023-05-19T08:59:35.684Z,2.28
2023-05-19T09:02:04.198Z,2.22
2023-05-19T09:04:31.831Z,1.90
2023-05-19T09:07:02.992Z,1.92
2023-05-19T09:09:30.700Z,2.35
2023-05-19T09:11:58.434Z,1.83
2023-05-19T09:14:25.667Z,1.75
2023-05-19T09:16:53.133Z,2.25
2023-05-19T09:19:21.301Z,1.90
2023-05-19T09:21:59.966Z,1.98
2023-05-19T09:24:27.361Z,1.63
2023-05-19T09:26:58.468Z,2.20
2023-05-19T09:29:27.316Z,2.58
2023-05-19T09:31:56.061Z,1.60
2023-05-19T09:34:25.019Z,1.85
2023-05-19T09:36:53.499Z,1.90
2023-05-19T09:39:22.016Z,1.80
2023-05-19T09:41:53.537Z,1.60
2023-05-19T09:44:24.368Z,1.85
2023-05-19T09:46:52.008Z,1.55
2023-05-19T09:49:22.896Z,1.92
2023-05-19T09:51:56.762Z,1.45
2023-05-19T09:54:24.880Z,1.35
2023-05-19T09:56:54.190Z,1.83
2023-05-19T09:59:25.152Z,2.03
2023-05-19T10:01:55.345Z,1.90
2023-05-19T10:04:23.872Z,1.60
2023-05-19T10:06:53.598Z,1.95
2023-05-19T10:09:23.831Z,1.63
2023-05-19T10:11:54.290Z,2.00
2023-05-19T10:14:25.729Z,1.70
2023-05-19T10:16:53.532Z,1.98
2023-05-19T10:19:22.739Z,1.92
2023-05-19T10:21:50.918Z,1.98
2023-05-19T10:24:21.727Z,2.40
2023-05-19T10:26:50.817Z,2.10
2023-05-19T10:29:20.503Z,2.33
2023-05-19T10:31:48.635Z,2.33
2023-05-19T10:34:34.757Z,2.00
2023-05-19T10:37:01.988Z,2.33
2023-05-19T10:39:32.603Z,2.00
2023-05-19T10:42:00.036Z,2.30
2023-05-19T10:44:27.432Z,1.90
2023-05-19T10:46:56.758Z,1.65
2023-05-19T10:49:24.708Z,1.80
2023-05-19T10:51:59.148Z,2.30
2023-05-19T10:54:47.773Z,1.80
2023-05-19T10:57:16.512Z,2.20
2023-05-19T10:59:47.392Z,1.60
2023-05-19T11:02:33.628Z,1.98
2023-05-19T11:05:15.024Z,2.22
2023-05-19T11:07:46.052Z,2.00
2023-05-19T11:10:13.656Z,2.00
2023-05-19T11:12:42.925Z,1.95
2023-05-19T11:15:16.619Z,1.83
2023-05-19T11:17:48.307Z,1.70
2023-05-19T11:20:23.459Z,1.80
2023-05-19T11:23:15.559Z,1.80
2023-05-19T11:25:43.798Z,1.83
2023-05-19T11:28:16.316Z,1.80
2023-05-19T11:30:44.544Z,2.28
2023-05-19T11:33:13.548Z,2.30
2023-05-19T11:35:41.241Z,2.30
2023-05-19T11:38:08.795Z,1.65
2023-05-19T11:40:36.280Z,2.00
2023-05-19T11:43:03.514Z,2.10
2023-05-19T11:45:33.293Z,2.78
2023-05-19T11:48:02.602Z,2.30
2023-05-19T11:50:31.955Z,2.45
2023-05-19T11:53:01.361Z,2.22
2023-05-19T11:55:29.286Z,2.50
2023-05-19T12:00:37.710Z,2.55
2023-05-19T12:03:05.365Z,2.35
2023-05-19T12:05:35.466Z,2.25
2023-05-19T12:08:06.336Z,2.97
2023-05-19T12:10:36.446Z,2.53
2023-05-19T12:13:04.503Z,3.20
2023-05-19T12:15:33.632Z,2.80
2023-05-19T12:18:01.824Z,3.03
2023-05-19T12:20:31.996Z,2.97
2023-05-19T12:22:59.800Z,2.92
2023-05-19T12:25:27.264Z,3.15
2023-05-19T12:27:58.380Z,2.83
2023-05-19T12:30:27.809Z,2.70
2023-05-19T12:32:57.915Z,2.97
2023-05-19T12:35:29.726Z,2.10
2023-05-19T12:37:57.700Z,1.70
2023-05-19T12:40:26.169Z,2.58
2023-05-19T12:42:59.124Z,2.20
2023-05-19T12:45:29.921Z,2.10
2023-05-19T12:47:57.354Z,2.53
2023-05-19T12:50:31.259Z,2.20
2023-05-19T12:52:59.972Z,1.80
2023-05-19T12:55:27.375Z,1.98
2023-05-19T12:57:57.314Z,1.90
2023-05-19T13:00:27.787Z,1.92
2023-05-19T13:03:00.351Z,1.85
2023-05-19T13:05:28.588Z,2.35
2023-05-19T13:07:56.323Z,2.00
2023-05-19T13:10:23.745Z,2.03
2023-05-19T13:12:51.224Z,2.80
2023-05-19T13:15:18.517Z,2.58
2023-05-19T13:17:46.453Z,2.33
2023-05-19T13:20:14.335Z,2.50
2023-05-19T13:22:43.065Z,2.38
2023-05-19T13:25:10.861Z,3.25
2023-05-19T13:27:38.778Z,2.90
2023-05-19T13:30:07.253Z,2.75
2023-05-19T13:32:34.723Z,2.88
2023-05-19T13:35:02.750Z,3.15
2023-05-19T13:37:30.111Z,3.30
2023-05-19T13:40:01.441Z,2.78
2023-05-19T13:42:28.787Z,2.83
2023-05-19T13:44:56.484Z,3.05
2023-05-19T13:47:24.405Z,2.58
2023-05-19T13:49:51.847Z,2.67
2023-05-19T13:52:20.686Z,3.00
2023-05-19T13:54:48.510Z,2.70
2023-05-19T13:57:16.825Z,2.90
2023-05-19T14:00:00.226Z,2.30
2023-05-19T14:02:29.974Z,2.67
2023-05-19T14:04:57.646Z,2.22
2023-05-19T14:07:25.606Z,2.35
2023-05-19T14:09:53.367Z,2.20
2023-05-19T14:12:23.559Z,2.03
2023-05-19T14:14:58.864Z,2.22
2023-05-19T14:17:28.738Z,2.58
2023-05-19T14:19:56.129Z,2.17
2023-05-19T14:22:23.358Z,2.78
2023-05-19T14:24:50.706Z,2.00
2023-05-19T14:27:17.955Z,2.30
2023-05-19T14:29:45.352Z,2.15
2023-05-19T14:32:12.664Z,2.50
2023-05-19T14:34:40.176Z,4.15
2023-05-19T14:37:07.456Z,7.05
2023-05-19T14:39:34.689Z,4.15
2023-05-19T14:42:01.864Z,4.35
2023-05-19T14:44:35.231Z,6.15
2023-05-19T14:47:02.664Z,3.67
2023-05-19T14:49:29.912Z,4.45
2023-05-19T14:51:57.108Z,5.50
2023-05-19T14:54:24.339Z,2.72
2023-05-19T14:56:51.552Z,2.28
2023-05-19T14:59:21.263Z,2.15
2023-05-19T15:01:48.636Z,1.80
2023-05-19T15:04:22.164Z,2.30
2023-05-19T15:06:58.094Z,2.10
2023-05-19T15:09:36.345Z,1.52
2023-05-19T15:12:03.558Z,1.88
2023-05-19T15:14:31.361Z,1.80
2023-05-19T15:16:59.093Z,2.45
2023-05-19T15:19:26.736Z,2.30
2023-05-19T15:21:54.168Z,2.88
2023-05-19T15:24:21.504Z,2.45
2023-05-19T15:26:48.898Z,2.70
2023-05-19T15:29:16.352Z,3.90
2023-05-19T15:31:43.596Z,2.53
2023-05-19T15:34:12.006Z,2.47
2023-05-19T15:36:39.217Z,2.13
2023-05-19T15:39:06.679Z,2.38
2023-05-19T15:41:34.051Z,2.13
2023-05-19T15:44:03.571Z,2.00
2023-05-19T15:46:31.163Z,1.98
2023-05-19T15:48:58.429Z,2.40
2023-05-19T15:51:26.978Z,2.50
2023-05-19T15:53:54.284Z,2.20
2023-05-19T15:56:22.450Z,2.45
2023-05-19T15:58:49.863Z,2.30
2023-05-19T16:01:17.154Z,2.53
2023-05-19T16:03:45.119Z,2.55
2023-05-19T16:06:13.949Z,2.47
2023-05-19T16:08:41.214Z,2.10
2023-05-19T16:11:08.492Z,2.28
2023-05-19T16:13:35.738Z,2.50
2023-05-19T16:16:03.084Z,2.67
2023-05-19T16:18:30.414Z,2.20
2023-05-19T16:20:57.663Z,2.35
2023-05-19T16:23:25.063Z,2.47
2023-05-19T16:25:52.348Z,2.15
2023-05-19T16:28:19.674Z,2.92
2023-05-19T16:30:47.057Z,2.00
2023-05-19T16:33:14.276Z,2.25
2023-05-19T16:35:41.747Z,2.90
2023-05-19T16:38:10.053Z,2.97
2023-05-19T16:40:38.259Z,2.60
2023-05-19T16:43:05.713Z,3.28
2023-05-19T16:45:33.120Z,2.72
2023-05-19T16:48:00.569Z,3.20
2023-05-19T16:50:27.929Z,2.78
2023-05-19T16:52:55.216Z,2.60
2023-05-19T16:55:22.949Z,3.20
2023-05-19T16:57:50.174Z,2.70
2023-05-19T17:00:17.573Z,2.88
2023-05-19T17:02:44.989Z,3.03
2023-05-19T17:05:13.497Z,2.90
2023-05-19T17:07:40.941Z,2.88
2023-05-19T17:10:11.222Z,2.50
2023-05-19T17:12:38.957Z,2.78
2023-05-19T17:15:06.622Z,2.60
2023-05-19T17:17:33.797Z,2.80
2023-05-19T17:20:01.450Z,2.97
2023-05-19T17:22:30.280Z,3.63
2023-05-19T17:24:58.047Z,2.88
2023-05-19T17:27:25.385Z,2.95
2023-05-19T17:29:52.772Z,3.15
2023-05-19T17:32:25.539Z,2.92
2023-05-19T17:34:53.004Z,2.78
2023-05-19T17:37:23.427Z,2.88
2023-05-19T17:39:50.987Z,2.60
2023-05-19T17:42:18.219Z,3.17
2023-05-19T17:44:45.400Z,3.85
2023-05-19T17:47:13.979Z,3.33
2023-05-19T17:49:41.571Z,3.08
2023-05-19T17:52:09.172Z,3.85
2023-05-19T17:54:36.579Z,3.60
2023-05-19T17:57:04.184Z,3.20
2023-05-19T17:59:31.627Z,3.72
2023-05-19T18:01:58.941Z,3.45
2023-05-19T18:04:27.677Z,3.65
2023-05-19T18:06:55.456Z,3.75
2023-05-19T18:09:24.936Z,3.28
2023-05-19T18:11:55.074Z,4.28
2023-05-19T18:14:22.401Z,3.88
2023-05-19T18:16:50.117Z,4.03
2023-05-19T18:19:17.508Z,3.78
2023-05-19T18:21:44.884Z,4.30
2023-05-19T18:24:12.105Z,4.30
2023-05-19T18:26:41.890Z,4.00
2023-05-19T18:29:09.938Z,3.85
2023-05-19T18:31:37.272Z,4.35
2023-05-19T18:34:04.671Z,3.60
2023-05-19T18:36:32.005Z,4.00
2023-05-19T18:39:00.151Z,3.67
2023-05-19T18:41:27.356Z,3.95
2023-05-19T18:43:54.952Z,4.50
2023-05-19T18:46:22.318Z,4.00
2023-05-19T18:48:52.900Z,3.80
2023-05-19T18:51:21.393Z,4.50
2023-05-19T18:53:50.235Z,4.78
2023-05-19T18:56:26.254Z,4.80
2023-05-19T18:58:53.761Z,3.72
2023-05-19T19:01:21.078Z,4.82
2023-05-19T19:03:49.279Z,4.07
2023-05-19T19:06:23.472Z,5.05
2023-05-19T19:08:51.051Z,5.32
2023-05-19T19:11:18.427Z,4.35
2023-05-19T19:13:45.827Z,4.38
2023-05-19T19:16:13.123Z,5.78
2023-05-19T19:18:40.386Z,4.53
2023-05-19T19:21:07.691Z,4.70
2023-05-19T19:23:34.915Z,3.60
2023-05-19T19:26:02.270Z,3.67
2023-05-19T19:28:29.738Z,3.80
2023-05-19T19:30:57.134Z,4.20
2023-05-19T19:33:24.797Z,4.80
2023-05-19T19:35:52.205Z,4.15
2023-05-19T19:38:19.526Z,4.47
2023-05-19T19:40:46.910Z,3.95
2023-05-19T19:43:14.128Z,3.45
2023-05-19T19:45:41.797Z,3.95
2023-05-19T19:48:09.212Z,4.07
2023-05-19T19:50:36.533Z,4.13
2023-05-19T19:53:03.787Z,4.10
2023-05-19T19:55:31.074Z,3.67
2023-05-19T19:57:58.356Z,3.95
2023-05-19T20:00:25.605Z,3.30
2023-05-19T20:03:04.308Z,4.20
2023-05-19T20:05:32.726Z,3.55
2023-05-19T20:08:00.119Z,3.85
2023-05-19T20:10:27.553Z,3.97
2023-05-19T20:12:54.807Z,3.55
2023-05-19T20:15:22.676Z,4.10
2023-05-19T20:17:49.881Z,3.65
2023-05-19T20:20:17.485Z,4.13
2023-05-19T20:22:45.928Z,3.90
2023-05-19T20:25:13.157Z,3.60
2023-05-19T20:27:40.571Z,4.55
2023-05-19T20:30:08.025Z,3.58
2023-05-19T20:32:35.297Z,3.40
2023-05-19T20:35:02.853Z,3.78
2023-05-19T20:37:30.181Z,3.78
2023-05-19T20:39:57.404Z,3.67
2023-05-19T20:42:24.731Z,4.10
2023-05-19T20:44:52.081Z,3.42
2023-05-19T20:47:19.388Z,3.70
2023-05-19T20:49:48.123Z,4.10
2023-05-19T20:52:18.426Z,3.88
2023-05-19T20:54:46.508Z,4.38
2023-05-19T20:57:14.060Z,3.92
2023-05-19T20:59:41.274Z,4.30
2023-05-19T21:02:08.549Z,4.30
2023-05-19T21:04:36.313Z,4.00
2023-05-19T21:07:03.623Z,4.22
2023-05-19T21:09:30.916Z,3.78
2023-05-19T21:11:58.135Z,4.63
2023-05-19T21:14:26.430Z,3.83
2023-05-19T21:16:54.400Z,4.35
2023-05-19T21:19:22.068Z,4.50
2023-05-19T21:21:49.538Z,5.88
2023-05-19T21:24:17.033Z,4.53
2023-05-19T21:26:44.260Z,3.95
2023-05-19T21:29:11.497Z,4.47
2023-05-19T21:31:38.823Z,4.40
2023-05-19T21:34:07.707Z,4.55
2023-05-19T21:36:35.247Z,4.32
2023-05-19T21:39:03.741Z,4.75
2023-05-19T21:41:32.429Z,4.70
2023-05-19T21:43:59.933Z,4.78
2023-05-19T21:46:29.107Z,4.68
2023-05-19T21:48:56.473Z,4.93
2023-05-19T21:51:23.627Z,4.70
2023-05-19T21:53:50.913Z,4.80
2023-05-19T21:56:18.084Z,5.10
2023-05-19T21:58:45.353Z,5.20
2023-05-19T22:01:13.295Z,5.88
2023-05-19T22:03:40.601Z,6.28
2023-05-19T22:06:08.507Z,5.10
2023-05-19T22:08:35.705Z,5.03
2023-05-19T22:11:02.966Z,6.00
2023-05-19T22:13:30.429Z,5.15
2023-05-19T22:15:57.937Z,5.47
2023-05-19T22:18:25.205Z,5.60
2023-05-19T22:20:52.409Z,5.03
2023-05-19T22:23:19.662Z,5.40
2023-05-19T22:25:47.033Z,5.53
2023-05-19T22:28:14.293Z,4.72
2023-05-19T22:30:42.334Z,5.18
2023-05-19T22:33:09.804Z,5.30
2023-05-19T22:35:37.070Z,5.43
2023-05-19T22:38:04.244Z,5.60
2023-05-19T22:40:32.660Z,5.57
2023-05-19T22:43:00.045Z,5.25
2023-05-19T22:45:27.379Z,5.32
2023-05-19T22:47:55.611Z,5.18
2023-05-19T22:50:23.060Z,5.30
2023-05-19T22:52:50.534Z,5.65
2023-05-19T22:55:17.785Z,6.00
2023-05-19T22:57:45.088Z,5.70
2023-05-19T23:00:14.331Z,5.30
2023-05-19T23:02:42.543Z,5.45
2023-05-19T23:05:09.886Z,5.27
2023-05-19T23:07:37.608Z,5.22
2023-05-19T23:10:06.170Z,5.88
2023-05-19T23:12:33.443Z,5.43
2023-05-19T23:15:01.174Z,5.50
2023-05-19T23:17:28.464Z,6.90
2023-05-19T23:19:55.712Z,6.28
2023-05-19T23:22:23.020Z,5.97
2023-05-19T23:24:50.339Z,5.88
2023-05-19T23:27:17.533Z,6.22
2023-05-19T23:29:47.785Z,5.80
2023-05-19T23:32:15.077Z,5.38
2023-05-19T23:34:42.335Z,6.38
2023-05-19T23:37:09.838Z,5.90
2023-05-19T23:39:38.278Z,5.90
2023-05-19T23:42:06.088Z,6.60
2023-05-19T23:44:33.412Z,6.00
2023-05-19T23:47:02.294Z,5.87
2023-05-19T23:49:29.685Z,5.70
2023-05-19T23:51:56.899Z,5.90
2023-05-19T23:54:24.291Z,6.10
2023-05-19T23:56:51.644Z,7.20
2023-05-19T23:59:18.843Z,5.88
